sensor_id;sensor_type;location;lat;lon;timestamp;P1;P2;P0
69224;PMS1003;56333;51.306;17.056;2023-04-02T00:00:25;34.00;22.10;
69224;PMS1003;56333;51.306;17.056;2023-04-02T00:02:45;32.40;20.90;
69224;PMS1003;56333;51.306;17.056;2023-04-02T00:04:22;31.80;21.00;
69224;PMS1003;56333;51.306;17.056;2023-04-02T00:05:50;28.20;20.50;
69224;PMS1003;56333;51.306;17.056;2023-04-02T00:07:29;35.50;23.30;
69224;PMS1003;56333;51.306;17.056;2023-04-02T00:08:59;32.60;22.40;
69224;PMS1003;56333;51.306;17.056;2023-04-02T00:10:33;29.50;20.50;
69224;PMS1003;56333;51.306;17.056;2023-04-02T00:12:15;29.90;21.10;
69224;PMS1003;56333;51.306;17.056;2023-04-02T00:13:46;32.60;21.60;
69224;PMS1003;56333;51.306;17.056;2023-04-02T00:15:15;29.80;20.60;
69224;PMS1003;56333;51.306;17.056;2023-04-02T00:16:45;30.20;22.00;
69224;PMS1003;56333;51.306;17.056;2023-04-02T00:18:16;29.70;21.00;
69224;PMS1003;56333;51.306;17.056;2023-04-02T00:19:51;33.50;24.90;
69224;PMS1003;56333;51.306;17.056;2023-04-02T00:21:27;34.10;23.30;
69224;PMS1003;56333;51.306;17.056;2023-04-02T00:22:57;30.80;20.70;
69224;PMS1003;56333;51.306;17.056;2023-04-02T00:24:26;29.00;19.30;
69224;PMS1003;56333;51.306;17.056;2023-04-02T00:25:55;26.80;18.50;
69224;PMS1003;56333;51.306;17.056;2023-04-02T00:27:24;25.60;17.50;
69224;PMS1003;56333;51.306;17.056;2023-04-02T00:28:53;22.60;16.80;
69224;PMS1003;56333;51.306;17.056;2023-04-02T00:30:22;23.60;17.30;
69224;PMS1003;56333;51.306;17.056;2023-04-02T00:31:53;23.20;16.80;
69224;PMS1003;56333;51.306;17.056;2023-04-02T00:33:24;22.50;15.80;
69224;PMS1003;56333;51.306;17.056;2023-04-02T00:34:54;21.50;16.20;
69224;PMS1003;56333;51.306;17.056;2023-04-02T00:36:26;23.70;16.60;
69224;PMS1003;56333;51.306;17.056;2023-04-02T00:37:58;23.90;18.10;
69224;PMS1003;56333;51.306;17.056;2023-04-02T00:39:30;23.60;15.80;
69224;PMS1003;56333;51.306;17.056;2023-04-02T00:41:03;22.00;14.40;
69224;PMS1003;56333;51.306;17.056;2023-04-02T00:42:34;17.30;12.70;
69224;PMS1003;56333;51.306;17.056;2023-04-02T00:44:06;15.80;11.70;
69224;PMS1003;56333;51.306;17.056;2023-04-02T00:45:39;15.60;11.60;
69224;PMS1003;56333;51.306;17.056;2023-04-02T00:47:19;15.20;11.10;
69224;PMS1003;56333;51.306;17.056;2023-04-02T00:48:55;15.30;11.60;
69224;PMS1003;56333;51.306;17.056;2023-04-02T00:50:33;15.20;11.40;
69224;PMS1003;56333;51.306;17.056;2023-04-02T00:52:05;17.30;12.70;
69224;PMS1003;56333;51.306;17.056;2023-04-02T00:53:37;13.60;10.50;
69224;PMS1003;56333;51.306;17.056;2023-04-02T00:55:14;19.20;13.60;
69224;PMS1003;56333;51.306;17.056;2023-04-02T00:56:49;14.80;10.70;
69224;PMS1003;56333;51.306;17.056;2023-04-02T00:58:24;13.60;10.10;
69224;PMS1003;56333;51.306;17.056;2023-04-02T00:59:59;13.50;10.10;
69224;PMS1003;56333;51.306;17.056;2023-04-02T01:01:38;15.00;11.00;
69224;PMS1003;56333;51.306;17.056;2023-04-02T01:03:31;14.80;11.20;
69224;PMS1003;56333;51.306;17.056;2023-04-02T01:05:03;15.50;11.50;
69224;PMS1003;56333;51.306;17.056;2023-04-02T01:06:48;16.70;11.50;
69224;PMS1003;56333;51.306;17.056;2023-04-02T01:08:25;16.10;11.90;
69224;PMS1003;56333;51.306;17.056;2023-04-02T01:10:23;16.60;12.50;
69224;PMS1003;56333;51.306;17.056;2023-04-02T01:12:14;16.40;12.10;
69224;PMS1003;56333;51.306;17.056;2023-04-02T01:13:59;18.00;12.60;
69224;PMS1003;56333;51.306;17.056;2023-04-02T01:15:38;16.00;13.00;
69224;PMS1003;56333;51.306;17.056;2023-04-02T01:17:19;17.30;13.00;
69224;PMS1003;56333;51.306;17.056;2023-04-02T01:19:04;21.50;17.10;
69224;PMS1003;56333;51.306;17.056;2023-04-02T01:21:30;18.90;15.00;
69224;PMS1003;56333;51.306;17.056;2023-04-02T01:23:12;24.30;18.70;
69224;PMS1003;56333;51.306;17.056;2023-04-02T01:24:43;22.40;17.90;
69224;PMS1003;56333;51.306;17.056;2023-04-02T01:26:22;22.50;16.70;
69224;PMS1003;56333;51.306;17.056;2023-04-02T01:27:59;19.10;14.50;
69224;PMS1003;56333;51.306;17.056;2023-04-02T01:29:34;15.30;12.10;
69224;PMS1003;56333;51.306;17.056;2023-04-02T01:31:05;14.40;11.20;
69224;PMS1003;56333;51.306;17.056;2023-04-02T01:32:35;14.70;11.60;
69224;PMS1003;56333;51.306;17.056;2023-04-02T01:34:06;20.10;13.90;
69224;PMS1003;56333;51.306;17.056;2023-04-02T01:35:42;17.80;12.70;
69224;PMS1003;56333;51.306;17.056;2023-04-02T01:37:28;16.20;12.30;
69224;PMS1003;56333;51.306;17.056;2023-04-02T01:39:09;15.20;11.30;
69224;PMS1003;56333;51.306;17.056;2023-04-02T01:40:48;16.50;11.90;
69224;PMS1003;56333;51.306;17.056;2023-04-02T01:42:24;15.90;11.20;
69224;PMS1003;56333;51.306;17.056;2023-04-02T01:43:57;14.30;11.60;
69224;PMS1003;56333;51.306;17.056;2023-04-02T01:45:29;14.00;11.00;
69224;PMS1003;56333;51.306;17.056;2023-04-02T01:47:02;14.10;11.40;
69224;PMS1003;56333;51.306;17.056;2023-04-02T01:48:36;12.90;10.10;
69224;PMS1003;56333;51.306;17.056;2023-04-02T01:50:23;15.60;11.40;
69224;PMS1003;56333;51.306;17.056;2023-04-02T01:51:57;17.80;13.90;
69224;PMS1003;56333;51.306;17.056;2023-04-02T01:53:31;22.60;19.30;
69224;PMS1003;56333;51.306;17.056;2023-04-02T01:55:00;18.60;13.60;
69224;PMS1003;56333;51.306;17.056;2023-04-02T01:56:30;20.10;16.30;
69224;PMS1003;56333;51.306;17.056;2023-04-02T01:58:01;17.10;12.40;
69224;PMS1003;56333;51.306;17.056;2023-04-02T01:59:31;15.60;12.40;
69224;PMS1003;56333;51.306;17.056;2023-04-02T02:01:05;17.20;12.40;
69224;PMS1003;56333;51.306;17.056;2023-04-02T02:02:37;15.60;11.80;
69224;PMS1003;56333;51.306;17.056;2023-04-02T02:04:08;15.20;10.50;
69224;PMS1003;56333;51.306;17.056;2023-04-02T02:05:39;13.60;10.50;
69224;PMS1003;56333;51.306;17.056;2023-04-02T02:07:13;14.30;10.40;
69224;PMS1003;56333;51.306;17.056;2023-04-02T02:08:48;13.90;11.00;
69224;PMS1003;56333;51.306;17.056;2023-04-02T02:10:27;13.60;10.70;
69224;PMS1003;56333;51.306;17.056;2023-04-02T02:12:02;12.50;9.90;
69224;PMS1003;56333;51.306;17.056;2023-04-02T02:13:34;11.60;9.50;
69224;PMS1003;56333;51.306;17.056;2023-04-02T02:15:06;10.80;8.60;
69224;PMS1003;56333;51.306;17.056;2023-04-02T02:16:40;12.00;8.30;
69224;PMS1003;56333;51.306;17.056;2023-04-02T02:18:12;12.20;8.90;
69224;PMS1003;56333;51.306;17.056;2023-04-02T02:19:48;10.40;8.60;
69224;PMS1003;56333;51.306;17.056;2023-04-02T02:21:34;12.90;9.50;
69224;PMS1003;56333;51.306;17.056;2023-04-02T02:23:08;12.30;10.10;
69224;PMS1003;56333;51.306;17.056;2023-04-02T02:24:40;12.80;9.90;
69224;PMS1003;56333;51.306;17.056;2023-04-02T02:26:11;11.80;9.70;
69224;PMS1003;56333;51.306;17.056;2023-04-02T02:29:24;10.50;8.70;
69224;PMS1003;56333;51.306;17.056;2023-04-02T02:30:57;11.70;8.90;
69224;PMS1003;56333;51.306;17.056;2023-04-02T02:32:31;11.60;9.00;
69224;PMS1003;56333;51.306;17.056;2023-04-02T02:34:05;10.60;8.70;
69224;PMS1003;56333;51.306;17.056;2023-04-02T02:35:43;11.50;9.40;
69224;PMS1003;56333;51.306;17.056;2023-04-02T02:37:21;12.10;8.90;
69224;PMS1003;56333;51.306;17.056;2023-04-02T02:38:56;11.00;8.30;
69224;PMS1003;56333;51.306;17.056;2023-04-02T02:40:44;11.10;8.30;
69224;PMS1003;56333;51.306;17.056;2023-04-02T02:42:20;11.00;8.10;
69224;PMS1003;56333;51.306;17.056;2023-04-02T02:43:59;10.20;8.50;
69224;PMS1003;56333;51.306;17.056;2023-04-02T02:45:34;11.20;8.60;
69224;PMS1003;56333;51.306;17.056;2023-04-02T02:47:07;10.10;7.90;
69224;PMS1003;56333;51.306;17.056;2023-04-02T02:48:40;10.40;8.50;
69224;PMS1003;56333;51.306;17.056;2023-04-02T02:50:18;11.60;9.20;
69224;PMS1003;56333;51.306;17.056;2023-04-02T02:51:56;10.90;8.50;
69224;PMS1003;56333;51.306;17.056;2023-04-02T02:53:46;13.30;10.00;
69224;PMS1003;56333;51.306;17.056;2023-04-02T02:55:22;10.60;8.60;
69224;PMS1003;56333;51.306;17.056;2023-04-02T02:57:07;17.00;13.00;
69224;PMS1003;56333;51.306;17.056;2023-04-02T02:58:44;16.30;12.50;
69224;PMS1003;56333;51.306;17.056;2023-04-02T03:00:19;16.50;12.20;
69224;PMS1003;56333;51.306;17.056;2023-04-02T03:01:50;14.30;11.10;
69224;PMS1003;56333;51.306;17.056;2023-04-02T03:03:23;13.90;10.10;
69224;PMS1003;56333;51.306;17.056;2023-04-02T03:04:57;10.90;8.90;
69224;PMS1003;56333;51.306;17.056;2023-04-02T03:06:29;11.20;8.80;
69224;PMS1003;56333;51.306;17.056;2023-04-02T03:08:05;9.90;8.30;
69224;PMS1003;56333;51.306;17.056;2023-04-02T03:09:44;10.60;8.40;
69224;PMS1003;56333;51.306;17.056;2023-04-02T03:11:23;12.40;8.60;
69224;PMS1003;56333;51.306;17.056;2023-04-02T03:13:04;11.10;8.70;
69224;PMS1003;56333;51.306;17.056;2023-04-02T03:14:41;12.10;10.30;
69224;PMS1003;56333;51.306;17.056;2023-04-02T03:16:17;12.50;10.30;
69224;PMS1003;56333;51.306;17.056;2023-04-02T03:17:52;15.10;11.40;
69224;PMS1003;56333;51.306;17.056;2023-04-02T03:19:30;12.60;10.00;
69224;PMS1003;56333;51.306;17.056;2023-04-02T03:21:09;13.40;10.40;
69224;PMS1003;56333;51.306;17.056;2023-04-02T03:22:50;13.00;10.30;
69224;PMS1003;56333;51.306;17.056;2023-04-02T03:24:30;12.50;9.70;
69224;PMS1003;56333;51.306;17.056;2023-04-02T03:26:09;11.80;9.40;
69224;PMS1003;56333;51.306;17.056;2023-04-02T03:27:45;11.90;9.90;
69224;PMS1003;56333;51.306;17.056;2023-04-02T03:29:18;13.80;10.20;
69224;PMS1003;56333;51.306;17.056;2023-04-02T03:30:55;11.20;8.90;
69224;PMS1003;56333;51.306;17.056;2023-04-02T03:32:30;11.30;8.90;
69224;PMS1003;56333;51.306;17.056;2023-04-02T03:34:06;10.30;8.10;
69224;PMS1003;56333;51.306;17.056;2023-04-02T03:35:41;10.30;8.20;
69224;PMS1003;56333;51.306;17.056;2023-04-02T03:37:16;10.10;8.10;
69224;PMS1003;56333;51.306;17.056;2023-04-02T03:38:50;9.60;7.30;
69224;PMS1003;56333;51.306;17.056;2023-04-02T03:40:27;9.50;8.00;
69224;PMS1003;56333;51.306;17.056;2023-04-02T03:42:01;13.50;9.30;
69224;PMS1003;56333;51.306;17.056;2023-04-02T03:43:38;13.30;9.80;
69224;PMS1003;56333;51.306;17.056;2023-04-02T03:45:13;12.70;9.90;
69224;PMS1003;56333;51.306;17.056;2023-04-02T03:46:49;12.50;9.10;
69224;PMS1003;56333;51.306;17.056;2023-04-02T03:48:26;13.40;9.70;
69224;PMS1003;56333;51.306;17.056;2023-04-02T03:50:02;12.00;9.40;
69224;PMS1003;56333;51.306;17.056;2023-04-02T03:51:37;13.60;10.80;
69224;PMS1003;56333;51.306;17.056;2023-04-02T03:53:11;13.10;9.30;
69224;PMS1003;56333;51.306;17.056;2023-04-02T03:54:40;12.30;9.10;
69224;PMS1003;56333;51.306;17.056;2023-04-02T03:56:11;12.10;9.20;
69224;PMS1003;56333;51.306;17.056;2023-04-02T03:57:58;13.00;9.80;
69224;PMS1003;56333;51.306;17.056;2023-04-02T03:59:37;13.20;9.90;
69224;PMS1003;56333;51.306;17.056;2023-04-02T04:01:16;14.20;11.20;
69224;PMS1003;56333;51.306;17.056;2023-04-02T04:02:51;15.70;11.70;
69224;PMS1003;56333;51.306;17.056;2023-04-02T04:04:23;15.10;11.40;
69224;PMS1003;56333;51.306;17.056;2023-04-02T04:05:58;15.20;10.90;
69224;PMS1003;56333;51.306;17.056;2023-04-02T04:07:35;15.10;11.20;
69224;PMS1003;56333;51.306;17.056;2023-04-02T04:09:13;20.60;16.20;
69224;PMS1003;56333;51.306;17.056;2023-04-02T04:10:45;15.60;11.30;
69224;PMS1003;56333;51.306;17.056;2023-04-02T04:12:25;17.90;11.60;
69224;PMS1003;56333;51.306;17.056;2023-04-02T04:14:01;17.00;11.80;
69224;PMS1003;56333;51.306;17.056;2023-04-02T04:15:35;16.60;11.70;
69224;PMS1003;56333;51.306;17.056;2023-04-02T04:17:13;17.60;12.10;
69224;PMS1003;56333;51.306;17.056;2023-04-02T04:18:54;22.30;14.50;
69224;PMS1003;56333;51.306;17.056;2023-04-02T04:20:33;18.50;13.30;
69224;PMS1003;56333;51.306;17.056;2023-04-02T04:22:16;19.30;13.20;
69224;PMS1003;56333;51.306;17.056;2023-04-02T04:23:51;17.30;11.90;
69224;PMS1003;56333;51.306;17.056;2023-04-02T04:25:27;19.00;12.20;
69224;PMS1003;56333;51.306;17.056;2023-04-02T04:27:07;17.60;12.40;
69224;PMS1003;56333;51.306;17.056;2023-04-02T04:28:46;16.50;11.80;
69224;PMS1003;56333;51.306;17.056;2023-04-02T04:30:28;16.60;12.20;
69224;PMS1003;56333;51.306;17.056;2023-04-02T04:32:16;19.00;12.50;
69224;PMS1003;56333;51.306;17.056;2023-04-02T04:33:56;19.50;12.90;
69224;PMS1003;56333;51.306;17.056;2023-04-02T04:35:35;17.50;12.10;
69224;PMS1003;56333;51.306;17.056;2023-04-02T04:37:17;18.40;12.30;
69224;PMS1003;56333;51.306;17.056;2023-04-02T04:38:51;18.60;12.60;
69224;PMS1003;56333;51.306;17.056;2023-04-02T04:40:29;15.80;10.00;
69224;PMS1003;56333;51.306;17.056;2023-04-02T04:42:02;14.20;10.20;
69224;PMS1003;56333;51.306;17.056;2023-04-02T04:43:41;13.80;10.00;
69224;PMS1003;56333;51.306;17.056;2023-04-02T04:45:25;13.60;9.70;
69224;PMS1003;56333;51.306;17.056;2023-04-02T04:47:05;15.00;10.70;
69224;PMS1003;56333;51.306;17.056;2023-04-02T04:48:40;15.50;10.00;
69224;PMS1003;56333;51.306;17.056;2023-04-02T04:50:26;16.00;11.10;
69224;PMS1003;56333;51.306;17.056;2023-04-02T04:51:59;14.50;9.90;
69224;PMS1003;56333;51.306;17.056;2023-04-02T04:53:32;16.10;9.50;
69224;PMS1003;56333;51.306;17.056;2023-04-02T04:55:28;13.10;9.10;
69224;PMS1003;56333;51.306;17.056;2023-04-02T04:57:03;15.00;10.10;
69224;PMS1003;56333;51.306;17.056;2023-04-02T04:58:39;14.30;9.70;
69224;PMS1003;56333;51.306;17.056;2023-04-02T05:00:19;14.70;10.20;
69224;PMS1003;56333;51.306;17.056;2023-04-02T05:01:59;15.30;10.70;
69224;PMS1003;56333;51.306;17.056;2023-04-02T05:03:36;14.70;9.60;
69224;PMS1003;56333;51.306;17.056;2023-04-02T05:05:17;15.80;10.30;
69224;PMS1003;56333;51.306;17.056;2023-04-02T05:06:53;14.40;9.60;
69224;PMS1003;56333;51.306;17.056;2023-04-02T05:08:31;14.10;9.80;
69224;PMS1003;56333;51.306;17.056;2023-04-02T05:10:08;18.50;14.30;
69224;PMS1003;56333;51.306;17.056;2023-04-02T05:11:45;17.50;12.50;
69224;PMS1003;56333;51.306;17.056;2023-04-02T05:13:22;19.00;13.30;
69224;PMS1003;56333;51.306;17.056;2023-04-02T05:14:59;17.40;11.80;
69224;PMS1003;56333;51.306;17.056;2023-04-02T05:16:36;18.60;13.50;
69224;PMS1003;56333;51.306;17.056;2023-04-02T05:18:19;16.10;11.70;
69224;PMS1003;56333;51.306;17.056;2023-04-02T05:19:58;16.10;10.60;
69224;PMS1003;56333;51.306;17.056;2023-04-02T05:21:39;15.50;10.10;
69224;PMS1003;56333;51.306;17.056;2023-04-02T05:23:16;13.20;9.70;
69224;PMS1003;56333;51.306;17.056;2023-04-02T05:24:58;11.80;8.20;
69224;PMS1003;56333;51.306;17.056;2023-04-02T05:26:41;12.70;9.80;
69224;PMS1003;56333;51.306;17.056;2023-04-02T05:28:17;14.10;9.80;
69224;PMS1003;56333;51.306;17.056;2023-04-02T05:29:52;14.70;11.30;
69224;PMS1003;56333;51.306;17.056;2023-04-02T05:31:26;15.20;11.00;
69224;PMS1003;56333;51.306;17.056;2023-04-02T05:33:01;16.00;10.90;
69224;PMS1003;56333;51.306;17.056;2023-04-02T05:34:35;16.40;11.20;
69224;PMS1003;56333;51.306;17.056;2023-04-02T05:36:08;13.60;9.10;
69224;PMS1003;56333;51.306;17.056;2023-04-02T05:37:46;15.30;11.10;
69224;PMS1003;56333;51.306;17.056;2023-04-02T05:39:22;11.60;8.70;
69224;PMS1003;56333;51.306;17.056;2023-04-02T05:41:01;11.50;8.10;
69224;PMS1003;56333;51.306;17.056;2023-04-02T05:42:33;12.90;8.40;
69224;PMS1003;56333;51.306;17.056;2023-04-02T05:44:23;13.40;9.20;
69224;PMS1003;56333;51.306;17.056;2023-04-02T05:45:59;10.90;8.00;
69224;PMS1003;56333;51.306;17.056;2023-04-02T05:47:33;10.70;7.50;
69224;PMS1003;56333;51.306;17.056;2023-04-02T05:49:12;10.70;7.00;
69224;PMS1003;56333;51.306;17.056;2023-04-02T05:50:50;10.60;7.60;
69224;PMS1003;56333;51.306;17.056;2023-04-02T05:52:28;12.20;7.60;
69224;PMS1003;56333;51.306;17.056;2023-04-02T05:54:03;10.20;6.90;
69224;PMS1003;56333;51.306;17.056;2023-04-02T05:55:47;11.40;7.60;
69224;PMS1003;56333;51.306;17.056;2023-04-02T05:57:22;10.40;6.90;
69224;PMS1003;56333;51.306;17.056;2023-04-02T05:59:05;10.50;6.40;
69224;PMS1003;56333;51.306;17.056;2023-04-02T06:01:04;9.70;6.70;
69224;PMS1003;56333;51.306;17.056;2023-04-02T06:03:05;9.50;6.90;
69224;PMS1003;56333;51.306;17.056;2023-04-02T06:04:45;8.70;6.00;
69224;PMS1003;56333;51.306;17.056;2023-04-02T06:06:30;9.00;6.70;
69224;PMS1003;56333;51.306;17.056;2023-04-02T06:08:18;9.50;6.60;
69224;PMS1003;56333;51.306;17.056;2023-04-02T06:09:52;8.10;5.70;
69224;PMS1003;56333;51.306;17.056;2023-04-02T06:11:29;9.50;6.40;
69224;PMS1003;56333;51.306;17.056;2023-04-02T06:13:03;7.80;5.20;
69224;PMS1003;56333;51.306;17.056;2023-04-02T06:14:38;6.30;4.60;
69224;PMS1003;56333;51.306;17.056;2023-04-02T06:16:10;8.10;5.90;
69224;PMS1003;56333;51.306;17.056;2023-04-02T06:17:50;6.80;4.50;
69224;PMS1003;56333;51.306;17.056;2023-04-02T06:19:28;8.80;6.00;
69224;PMS1003;56333;51.306;17.056;2023-04-02T06:21:00;7.60;5.20;
69224;PMS1003;56333;51.306;17.056;2023-04-02T06:22:36;7.40;4.70;
69224;PMS1003;56333;51.306;17.056;2023-04-02T06:24:12;7.80;5.50;
69224;PMS1003;56333;51.306;17.056;2023-04-02T06:25:47;6.30;4.30;
69224;PMS1003;56333;51.306;17.056;2023-04-02T06:27:19;7.20;4.70;
69224;PMS1003;56333;51.306;17.056;2023-04-02T06:28:54;6.40;4.70;
69224;PMS1003;56333;51.306;17.056;2023-04-02T06:30:30;6.20;4.50;
69224;PMS1003;56333;51.306;17.056;2023-04-02T06:32:03;7.50;5.10;
69224;PMS1003;56333;51.306;17.056;2023-04-02T06:33:36;7.40;5.50;
69224;PMS1003;56333;51.306;17.056;2023-04-02T06:35:07;9.00;5.80;
69224;PMS1003;56333;51.306;17.056;2023-04-02T06:36:40;7.70;5.40;
69224;PMS1003;56333;51.306;17.056;2023-04-02T06:38:17;7.60;5.00;
69224;PMS1003;56333;51.306;17.056;2023-04-02T06:39:51;9.50;5.10;
69224;PMS1003;56333;51.306;17.056;2023-04-02T06:41:24;7.70;5.00;
69224;PMS1003;56333;51.306;17.056;2023-04-02T06:43:15;11.20;5.70;
69224;PMS1003;56333;51.306;17.056;2023-04-02T06:45:02;9.20;5.00;
69224;PMS1003;56333;51.306;17.056;2023-04-02T06:47:10;10.00;5.60;
69224;PMS1003;56333;51.306;17.056;2023-04-02T06:48:48;9.80;6.30;
69224;PMS1003;56333;51.306;17.056;2023-04-02T06:50:24;10.70;6.40;
69224;PMS1003;56333;51.306;17.056;2023-04-02T06:51:59;10.40;6.50;
69224;PMS1003;56333;51.306;17.056;2023-04-02T06:53:35;7.10;5.20;
69224;PMS1003;56333;51.306;17.056;2023-04-02T06:55:25;9.20;5.30;
69224;PMS1003;56333;51.306;17.056;2023-04-02T06:56:58;7.90;4.80;
69224;PMS1003;56333;51.306;17.056;2023-04-02T06:58:31;8.70;5.70;
69224;PMS1003;56333;51.306;17.056;2023-04-02T07:00:01;8.20;5.30;
69224;PMS1003;56333;51.306;17.056;2023-04-02T07:01:34;7.40;5.00;
69224;PMS1003;56333;51.306;17.056;2023-04-02T07:03:13;7.80;5.30;
69224;PMS1003;56333;51.306;17.056;2023-04-02T07:04:46;6.80;4.80;
69224;PMS1003;56333;51.306;17.056;2023-04-02T07:06:18;8.40;5.20;
69224;PMS1003;56333;51.306;17.056;2023-04-02T07:07:50;8.60;5.30;
69224;PMS1003;56333;51.306;17.056;2023-04-02T07:09:19;6.70;5.00;
69224;PMS1003;56333;51.306;17.056;2023-04-02T07:10:53;7.10;4.80;
69224;PMS1003;56333;51.306;17.056;2023-04-02T07:12:25;9.20;5.20;
69224;PMS1003;56333;51.306;17.056;2023-04-02T07:13:55;8.10;5.10;
69224;PMS1003;56333;51.306;17.056;2023-04-02T07:15:25;8.10;6.40;
69224;PMS1003;56333;51.306;17.056;2023-04-02T07:16:58;15.90;10.00;
69224;PMS1003;56333;51.306;17.056;2023-04-02T07:18:31;9.10;6.20;
69224;PMS1003;56333;51.306;17.056;2023-04-02T07:20:03;6.50;4.80;
69224;PMS1003;56333;51.306;17.056;2023-04-02T07:21:39;5.50;4.20;
69224;PMS1003;56333;51.306;17.056;2023-04-02T07:23:08;6.80;4.90;
69224;PMS1003;56333;51.306;17.056;2023-04-02T07:24:39;9.10;6.10;
69224;PMS1003;56333;51.306;17.056;2023-04-02T07:26:11;10.10;6.00;
69224;PMS1003;56333;51.306;17.056;2023-04-02T07:27:42;7.80;5.50;
69224;PMS1003;56333;51.306;17.056;2023-04-02T07:29:18;8.10;5.00;
69224;PMS1003;56333;51.306;17.056;2023-04-02T07:30:49;7.50;5.50;
69224;PMS1003;56333;51.306;17.056;2023-04-02T07:32:18;9.60;6.60;
69224;PMS1003;56333;51.306;17.056;2023-04-02T07:33:52;10.90;7.50;
69224;PMS1003;56333;51.306;17.056;2023-04-02T07:35:24;12.50;7.70;
69224;PMS1003;56333;51.306;17.056;2023-04-02T07:36:53;7.70;5.20;
69224;PMS1003;56333;51.306;17.056;2023-04-02T07:38:28;9.20;6.50;
69224;PMS1003;56333;51.306;17.056;2023-04-02T07:40:19;5.60;4.20;
69224;PMS1003;56333;51.306;17.056;2023-04-02T07:42:03;5.90;4.20;
69224;PMS1003;56333;51.306;17.056;2023-04-02T07:43:47;5.30;4.10;
69224;PMS1003;56333;51.306;17.056;2023-04-02T07:45:24;7.10;5.40;
69224;PMS1003;56333;51.306;17.056;2023-04-02T07:47:11;10.10;6.10;
69224;PMS1003;56333;51.306;17.056;2023-04-02T07:48:40;6.70;4.80;
69224;PMS1003;56333;51.306;17.056;2023-04-02T07:50:15;6.40;4.20;
69224;PMS1003;56333;51.306;17.056;2023-04-02T07:52:05;6.90;4.70;
69224;PMS1003;56333;51.306;17.056;2023-04-02T07:53:37;6.50;4.30;
69224;PMS1003;56333;51.306;17.056;2023-04-02T07:55:13;6.00;4.10;
69224;PMS1003;56333;51.306;17.056;2023-04-02T07:56:42;6.00;4.20;
69224;PMS1003;56333;51.306;17.056;2023-04-02T07:58:11;5.60;4.40;
69224;PMS1003;56333;51.306;17.056;2023-04-02T07:59:40;6.60;4.70;
69224;PMS1003;56333;51.306;17.056;2023-04-02T08:01:18;5.30;4.10;
69224;PMS1003;56333;51.306;17.056;2023-04-02T08:02:49;6.10;4.00;
69224;PMS1003;56333;51.306;17.056;2023-04-02T08:04:20;6.80;4.50;
69224;PMS1003;56333;51.306;17.056;2023-04-02T08:05:55;18.60;11.50;
69224;PMS1003;56333;51.306;17.056;2023-04-02T08:07:25;20.80;14.40;
69224;PMS1003;56333;51.306;17.056;2023-04-02T08:08:54;11.10;8.00;
69224;PMS1003;56333;51.306;17.056;2023-04-02T08:10:24;17.10;12.80;
69224;PMS1003;56333;51.306;17.056;2023-04-02T08:11:53;22.60;17.00;
69224;PMS1003;56333;51.306;17.056;2023-04-02T08:13:21;19.80;14.70;
69224;PMS1003;56333;51.306;17.056;2023-04-02T08:14:50;33.50;26.70;
69224;PMS1003;56333;51.306;17.056;2023-04-02T08:16:19;11.30;8.90;
69224;PMS1003;56333;51.306;17.056;2023-04-02T08:17:50;25.90;20.40;
69224;PMS1003;56333;51.306;17.056;2023-04-02T08:19:20;10.30;5.30;
69224;PMS1003;56333;51.306;17.056;2023-04-02T08:20:49;16.40;7.40;
69224;PMS1003;56333;51.306;17.056;2023-04-02T08:22:18;13.90;6.50;
69224;PMS1003;56333;51.306;17.056;2023-04-02T08:23:47;12.50;5.30;
69224;PMS1003;56333;51.306;17.056;2023-04-02T08:25:17;9.00;5.40;
69224;PMS1003;56333;51.306;17.056;2023-04-02T08:26:47;9.30;5.80;
69224;PMS1003;56333;51.306;17.056;2023-04-02T08:28:19;7.70;4.50;
69224;PMS1003;56333;51.306;17.056;2023-04-02T08:29:48;40.00;25.20;
69224;PMS1003;56333;51.306;17.056;2023-04-02T08:31:17;12.80;8.30;
69224;PMS1003;56333;51.306;17.056;2023-04-02T08:32:46;23.90;14.60;
69224;PMS1003;56333;51.306;17.056;2023-04-02T08:34:15;13.10;9.10;
69224;PMS1003;56333;51.306;17.056;2023-04-02T08:35:44;9.70;6.20;
69224;PMS1003;56333;51.306;17.056;2023-04-02T08:37:13;8.00;5.00;
69224;PMS1003;56333;51.306;17.056;2023-04-02T08:38:42;8.80;6.10;
69224;PMS1003;56333;51.306;17.056;2023-04-02T08:40:24;10.50;7.00;
69224;PMS1003;56333;51.306;17.056;2023-04-02T08:42:02;10.00;6.30;
69224;PMS1003;56333;51.306;17.056;2023-04-02T08:44:01;11.10;6.60;
69224;PMS1003;56333;51.306;17.056;2023-04-02T08:45:56;11.70;7.00;
69224;PMS1003;56333;51.306;17.056;2023-04-02T08:47:34;7.80;5.40;
69224;PMS1003;56333;51.306;17.056;2023-04-02T08:49:13;81.10;43.60;
69224;PMS1003;56333;51.306;17.056;2023-04-02T08:50:45;25.20;15.10;
69224;PMS1003;56333;51.306;17.056;2023-04-02T08:52:23;12.70;7.90;
69224;PMS1003;56333;51.306;17.056;2023-04-02T08:53:54;11.40;7.30;
69224;PMS1003;56333;51.306;17.056;2023-04-02T08:55:33;8.40;4.90;
69224;PMS1003;56333;51.306;17.056;2023-04-02T08:57:10;21.20;13.20;
69224;PMS1003;56333;51.306;17.056;2023-04-02T08:58:47;14.70;9.70;
69224;PMS1003;56333;51.306;17.056;2023-04-02T09:00:29;19.30;13.50;
69224;PMS1003;56333;51.306;17.056;2023-04-02T09:02:24;13.60;9.00;
69224;PMS1003;56333;51.306;17.056;2023-04-02T09:03:59;24.50;18.20;
69224;PMS1003;56333;51.306;17.056;2023-04-02T09:05:33;6.90;4.60;
69224;PMS1003;56333;51.306;17.056;2023-04-02T09:07:03;9.10;6.20;
69224;PMS1003;56333;51.306;17.056;2023-04-02T09:08:33;8.40;5.30;
69224;PMS1003;56333;51.306;17.056;2023-04-02T09:10:02;8.60;5.20;
69224;PMS1003;56333;51.306;17.056;2023-04-02T09:11:37;8.10;4.60;
69224;PMS1003;56333;51.306;17.056;2023-04-02T09:13:19;6.80;4.30;
69224;PMS1003;56333;51.306;17.056;2023-04-02T09:15:04;7.00;4.50;
69224;PMS1003;56333;51.306;17.056;2023-04-02T09:16:45;7.90;4.90;
69224;PMS1003;56333;51.306;17.056;2023-04-02T09:18:17;12.00;6.70;
69224;PMS1003;56333;51.306;17.056;2023-04-02T09:19:53;8.60;5.50;
69224;PMS1003;56333;51.306;17.056;2023-04-02T09:21:39;9.20;6.10;
69224;PMS1003;56333;51.306;17.056;2023-04-02T09:23:16;7.10;4.70;
69224;PMS1003;56333;51.306;17.056;2023-04-02T09:24:51;5.80;3.80;
69224;PMS1003;56333;51.306;17.056;2023-04-02T09:26:24;5.40;3.70;
69224;PMS1003;56333;51.306;17.056;2023-04-02T09:27:56;7.00;4.80;
69224;PMS1003;56333;51.306;17.056;2023-04-02T09:29:47;5.80;3.80;
69224;PMS1003;56333;51.306;17.056;2023-04-02T09:31:21;6.00;4.00;
69224;PMS1003;56333;51.306;17.056;2023-04-02T09:32:53;6.60;4.50;
69224;PMS1003;56333;51.306;17.056;2023-04-02T09:34:33;7.00;4.80;
69224;PMS1003;56333;51.306;17.056;2023-04-02T09:36:03;6.00;4.10;
69224;PMS1003;56333;51.306;17.056;2023-04-02T09:37:32;7.00;4.80;
69224;PMS1003;56333;51.306;17.056;2023-04-02T09:39:05;8.10;4.80;
69224;PMS1003;56333;51.306;17.056;2023-04-02T09:40:49;8.40;5.20;